createdAt,value
2024-05-09T00:00:35.476Z,3.20
2024-05-09T00:03:07.307Z,2.92
2024-05-09T00:05:34.570Z,3.08
2024-05-09T00:10:35.412Z,2.67
2024-05-09T00:13:04.973Z,3.92
2024-05-09T00:15:33.182Z,3.05
2024-05-09T00:17:59.982Z,2.92
2024-05-09T00:20:35.097Z,2.83
2024-05-09T00:23:06.917Z,3.00
2024-05-09T00:25:33.841Z,3.20
2024-05-09T00:28:00.392Z,2.95
2024-05-09T00:30:33.597Z,3.17
2024-05-09T00:33:03.094Z,3.33
2024-05-09T00:35:30.196Z,3.78
2024-05-09T00:37:56.852Z,2.88
2024-05-09T00:40:35.152Z,3.00
2024-05-09T00:43:06.356Z,2.78
2024-05-09T00:45:34.208Z,2.65
2024-05-09T00:48:03.528Z,2.78
2024-05-09T00:50:36.339Z,3.42
2024-05-09T00:53:06.325Z,3.67
2024-05-09T00:55:35.223Z,3.25
2024-05-09T00:58:02.803Z,3.35
2024-05-09T01:00:37.778Z,3.33
2024-05-09T01:03:07.131Z,3.20
2024-05-09T01:08:02.723Z,2.67
2024-05-09T01:10:34.416Z,3.55
2024-05-09T01:13:03.750Z,3.50
2024-05-09T01:15:30.530Z,3.30
2024-05-09T01:17:58.095Z,3.35
2024-05-09T01:20:36.526Z,3.50
2024-05-09T01:23:09.562Z,3.58
2024-05-09T01:25:36.833Z,2.92
2024-05-09T01:28:03.607Z,3.35
2024-05-09T01:30:34.876Z,3.30
2024-05-09T01:35:31.095Z,3.40
2024-05-09T01:37:57.849Z,3.40
2024-05-09T01:40:33.534Z,3.03
2024-05-09T01:43:04.713Z,3.47
2024-05-09T01:45:31.399Z,3.42
2024-05-09T01:47:58.300Z,3.88
2024-05-09T01:50:36.232Z,3.03
2024-05-09T01:53:06.577Z,3.08
2024-05-09T01:55:33.186Z,3.30
2024-05-09T01:57:59.742Z,2.67
2024-05-09T02:00:36.893Z,2.90
2024-05-09T02:03:14.472Z,3.42
2024-05-09T02:05:44.029Z,3.45
2024-05-09T02:08:21.331Z,3.30
2024-05-09T02:10:49.497Z,3.08
2024-05-09T02:13:16.918Z,3.35
2024-05-09T02:15:43.923Z,3.72
2024-05-09T02:18:11.105Z,2.88
2024-05-09T02:23:06.790Z,3.78
2024-05-09T02:25:34.012Z,3.28
2024-05-09T02:28:00.756Z,3.20
2024-05-09T02:30:37.794Z,3.95
2024-05-09T02:33:08.059Z,2.97
2024-05-09T02:35:35.386Z,3.22
2024-05-09T02:38:02.181Z,3.30
2024-05-09T02:40:36.152Z,3.42
2024-05-09T02:43:05.887Z,3.15
2024-05-09T02:45:32.766Z,3.47
2024-05-09T02:47:59.598Z,3.40
2024-05-09T02:50:34.186Z,3.85
2024-05-09T02:53:05.434Z,2.90
2024-05-09T02:55:32.169Z,4.20
2024-05-09T02:57:58.792Z,3.03
2024-05-09T03:00:34.460Z,3.55
2024-05-09T03:03:10.372Z,3.33
2024-05-09T03:05:39.372Z,3.58
2024-05-09T03:08:06.406Z,3.53
2024-05-09T03:10:36.522Z,3.50
2024-05-09T03:13:14.535Z,3.78
2024-05-09T03:15:42.838Z,3.58
2024-05-09T03:18:09.889Z,3.80
2024-05-09T03:23:05.502Z,3.17
2024-05-09T03:25:32.748Z,4.20
2024-05-09T03:27:59.530Z,3.72
2024-05-09T03:30:38.133Z,3.75
2024-05-09T03:33:17.998Z,3.70
2024-05-09T03:35:46.656Z,4.00
2024-05-09T03:40:48.011Z,3.97
2024-05-09T03:43:15.642Z,4.10
2024-05-09T03:45:43.267Z,4.13
2024-05-09T03:48:10.408Z,3.95
2024-05-09T03:50:37.709Z,4.88
2024-05-09T03:53:04.939Z,3.92
2024-05-09T03:55:31.761Z,4.70
2024-05-09T03:57:58.531Z,4.45
2024-05-09T04:00:31.683Z,4.82
2024-05-09T04:03:06.062Z,4.55
2024-05-09T04:05:34.417Z,5.13
2024-05-09T04:08:01.376Z,4.40
2024-05-09T04:10:32.926Z,4.80
2024-05-09T04:13:01.250Z,3.58
2024-05-09T04:15:27.847Z,4.10
2024-05-09T04:17:54.637Z,4.60
2024-05-09T04:20:32.543Z,4.60
2024-05-09T04:23:10.594Z,4.32
2024-05-09T04:25:37.843Z,4.40
2024-05-09T04:28:05.288Z,4.30
2024-05-09T04:33:09.340Z,4.55
2024-05-09T04:35:38.116Z,4.32
2024-05-09T04:38:05.255Z,5.15
2024-05-09T04:40:35.246Z,4.68
2024-05-09T04:43:04.379Z,4.43
2024-05-09T04:45:31.203Z,4.18
2024-05-09T04:47:58.235Z,4.00
2024-05-09T04:50:33.232Z,4.90
2024-05-09T04:53:04.078Z,5.35
2024-05-09T04:55:31.186Z,5.03
2024-05-09T04:57:57.796Z,4.43
2024-05-09T05:00:32.506Z,4.65
2024-05-09T05:03:06.966Z,4.78
2024-05-09T05:05:37.643Z,4.65
2024-05-09T05:08:04.841Z,4.32
2024-05-09T05:10:36.054Z,5.15
2024-05-09T05:13:16.436Z,4.88
2024-05-09T05:18:10.293Z,4.55
2024-05-09T05:20:36.961Z,4.32
2024-05-09T05:23:03.662Z,4.65
2024-05-09T05:25:30.240Z,4.97
2024-05-09T05:27:56.766Z,4.35
2024-05-09T05:30:29.003Z,4.95
2024-05-09T05:33:00.002Z,4.78
2024-05-09T05:35:27.032Z,5.22
2024-05-09T05:37:53.711Z,6.30
2024-05-09T05:40:28.199Z,5.10
2024-05-09T05:43:02.406Z,4.85
2024-05-09T05:45:29.008Z,5.03
2024-05-09T05:47:55.799Z,4.95
2024-05-09T05:50:28.011Z,5.30
2024-05-09T05:53:01.991Z,4.85
2024-05-09T05:55:28.590Z,4.72
2024-05-09T05:57:55.113Z,5.70
2024-05-09T06:00:29.523Z,5.72
2024-05-09T06:03:02.327Z,5.50
2024-05-09T06:05:29.145Z,5.78
2024-05-09T06:07:55.860Z,5.65
2024-05-09T06:10:26.334Z,6.00
2024-05-09T06:13:01.407Z,5.90
2024-05-09T06:15:27.992Z,7.47
2024-05-09T06:17:54.738Z,6.70
2024-05-09T06:20:31.245Z,6.82
2024-05-09T06:23:03.080Z,6.82
2024-05-09T06:25:29.832Z,7.40
2024-05-09T06:27:56.373Z,7.03
2024-05-09T06:30:30.312Z,6.50
2024-05-09T06:33:05.592Z,6.97
2024-05-09T06:35:33.256Z,6.88
2024-05-09T06:38:00.079Z,7.95
2024-05-09T06:40:35.973Z,7.28
2024-05-09T06:43:05.358Z,6.78
2024-05-09T06:45:31.930Z,7.30
2024-05-09T06:47:58.689Z,7.35
2024-05-09T06:50:28.512Z,7.50
2024-05-09T06:53:01.878Z,7.38
2024-05-09T06:55:28.485Z,7.53
2024-05-09T06:57:55.049Z,7.75
2024-05-09T07:00:27.588Z,8.35
2024-05-09T07:03:05.736Z,6.88
2024-05-09T07:05:33.359Z,7.53
2024-05-09T07:08:00.159Z,8.38
2024-05-09T07:10:32.871Z,7.80
2024-05-09T07:13:01.894Z,7.07
2024-05-09T07:15:28.561Z,8.00
2024-05-09T07:17:55.481Z,6.93
2024-05-09T07:20:31.729Z,7.90
2024-05-09T07:23:02.849Z,6.93
2024-05-09T07:25:29.732Z,7.15
2024-05-09T07:27:56.487Z,7.70
2024-05-09T07:30:27.899Z,7.30
2024-05-09T07:33:00.268Z,7.07
2024-05-09T07:35:27.268Z,7.82
2024-05-09T07:37:54.102Z,7.88
2024-05-09T07:40:29.052Z,7.30
2024-05-09T07:43:06.641Z,7.32
2024-05-09T07:52:23.602Z,8.45
2024-05-09T07:53:38.523Z,6.75
2024-05-09T07:56:06.956Z,8.02
2024-05-09T07:58:33.801Z,6.85
2024-05-09T08:01:02.440Z,6.93
2024-05-09T08:03:29.240Z,6.95
2024-05-09T08:05:56.099Z,6.45
2024-05-09T08:08:23.328Z,5.95
2024-05-09T08:10:50.759Z,6.13
2024-05-09T08:13:17.430Z,6.45
2024-05-09T08:15:44.129Z,5.55
2024-05-09T08:18:11.247Z,5.35
2024-05-09T08:20:39.222Z,6.32
2024-05-09T08:23:06.000Z,6.55
2024-05-09T08:25:32.760Z,6.25
2024-05-09T08:27:59.374Z,5.68
2024-05-09T08:30:32.867Z,6.95
2024-05-09T08:33:04.187Z,7.05
2024-05-09T08:35:30.878Z,5.93
2024-05-09T08:37:57.624Z,5.97
2024-05-09T08:40:31.059Z,7.30
2024-05-09T08:43:02.968Z,6.90
2024-05-09T08:45:30.744Z,6.55
2024-05-09T08:48:01.353Z,6.20
2024-05-09T08:50:35.888Z,6.35
2024-05-09T08:53:05.868Z,6.18
2024-05-09T08:58:01.196Z,6.22
2024-05-09T09:00:35.846Z,5.85
2024-05-09T09:03:06.792Z,5.85
2024-05-09T09:05:37.940Z,5.25
2024-05-09T09:08:07.487Z,4.97
2024-05-09T09:10:34.201Z,6.07
2024-05-09T09:13:05.060Z,6.00
2024-05-09T09:15:32.798Z,5.47
2024-05-09T09:18:00.839Z,5.38
2024-05-09T09:20:35.399Z,5.38
2024-05-09T09:23:03.788Z,6.25
2024-05-09T09:25:30.611Z,5.28
2024-05-09T09:27:58.610Z,5.78
2024-05-09T09:30:35.103Z,6.43
2024-05-09T09:33:08.574Z,6.97
2024-05-09T09:35:36.279Z,5.68
2024-05-09T09:38:04.403Z,6.35
2024-05-09T09:40:39.212Z,6.47
2024-05-09T09:43:17.997Z,7.80
2024-05-09T09:45:46.444Z,6.10
2024-05-09T09:48:14.764Z,5.95
2024-05-09T09:50:42.206Z,6.68
2024-05-09T09:53:10.257Z,6.10
2024-05-09T09:55:38.467Z,6.13
2024-05-09T09:58:08.771Z,6.28
2024-05-09T10:00:37.770Z,6.25
2024-05-09T10:03:04.669Z,6.10
2024-05-09T10:05:33.599Z,5.65
2024-05-09T10:08:04.698Z,6.10
2024-05-09T10:10:34.710Z,7.03
2024-05-09T10:13:05.787Z,6.45
2024-05-09T10:15:51.070Z,5.75
2024-05-09T10:18:22.756Z,5.10
2024-05-09T10:20:51.734Z,5.72
2024-05-09T10:23:32.464Z,5.53
2024-05-09T10:26:00.862Z,5.03
2024-05-09T10:28:33.306Z,5.05
2024-05-09T10:31:01.842Z,6.03
2024-05-09T10:34:02.391Z,6.38
2024-05-09T10:36:29.178Z,6.47
2024-05-09T10:38:55.818Z,7.55
2024-05-09T10:41:23.751Z,6.70
2024-05-09T10:43:51.186Z,6.72
2024-05-09T10:46:21.469Z,6.45
2024-05-09T10:48:48.821Z,6.90
2024-05-09T10:51:16.861Z,6.50
2024-05-09T10:53:44.888Z,6.25
2024-05-09T10:56:13.982Z,5.65
2024-05-09T10:58:40.744Z,6.95
2024-05-09T11:01:09.043Z,6.32
2024-05-09T11:03:36.886Z,6.22
2024-05-09T11:06:04.211Z,7.07
2024-05-09T11:10:59.563Z,6.75
2024-05-09T11:13:30.336Z,6.40
2024-05-09T11:15:57.157Z,6.68
2024-05-09T11:18:26.476Z,6.95
2024-05-09T11:20:56.067Z,6.72
2024-05-09T11:23:26.128Z,6.88
2024-05-09T11:25:54.298Z,6.07
2024-05-09T11:28:21.993Z,7.20
2024-05-09T11:30:49.381Z,6.97
2024-05-09T11:33:18.710Z,7.07
2024-05-09T11:35:46.974Z,6.53
2024-05-09T11:38:13.853Z,7.32
2024-05-09T11:40:40.892Z,7.70
2024-05-09T11:43:07.579Z,7.68
2024-05-09T11:45:34.360Z,8.05
2024-05-09T11:48:01.296Z,7.75
2024-05-09T11:53:02.343Z,6.47
2024-05-09T11:55:29.060Z,7.80
2024-05-09T11:57:55.907Z,6.80
2024-05-09T12:03:04.793Z,6.95
2024-05-09T12:05:32.146Z,7.22
2024-05-09T12:07:58.930Z,7.32
2024-05-09T12:10:32.707Z,7.07
2024-05-09T12:13:02.003Z,6.75
2024-05-09T12:17:58.346Z,7.57
2024-05-09T12:20:35.150Z,7.75
2024-05-09T12:23:05.090Z,7.82
2024-05-09T12:25:31.615Z,8.48
2024-05-09T12:27:58.333Z,7.55
2024-05-09T12:30:33.222Z,7.93
2024-05-09T12:33:05.012Z,7.82
2024-05-09T12:35:31.881Z,7.85
2024-05-09T12:37:58.510Z,8.98
2024-05-09T12:40:34.274Z,8.45
2024-05-09T12:43:04.410Z,7.72
2024-05-09T12:45:31.492Z,7.55
2024-05-09T12:47:58.401Z,8.15
2024-05-09T12:50:31.713Z,8.68
2024-05-09T12:53:00.296Z,6.90
2024-05-09T12:55:28.107Z,7.72
2024-05-09T12:57:55.433Z,7.78
2024-05-09T13:00:28.194Z,7.70
2024-05-09T13:03:00.731Z,7.60
2024-05-09T13:05:27.803Z,7.78
2024-05-09T13:07:56.269Z,6.68
2024-05-09T13:10:29.426Z,7.25
2024-05-09T13:12:59.851Z,7.97
2024-05-09T13:15:26.940Z,7.10
2024-05-09T13:17:54.803Z,6.90
2024-05-09T13:20:29.464Z,6.75
2024-05-09T13:23:01.858Z,6.97
2024-05-09T13:25:28.621Z,8.00
2024-05-09T13:27:56.391Z,7.15
2024-05-09T13:30:29.739Z,7.45
2024-05-09T13:33:06.067Z,6.13
2024-05-09T13:35:34.860Z,6.63
2024-05-09T13:38:02.348Z,6.07
2024-05-09T13:40:33.746Z,7.43
2024-05-09T13:43:02.892Z,6.85
2024-05-09T13:45:29.614Z,7.03
2024-05-09T13:47:56.629Z,6.10
2024-05-09T13:50:31.361Z,6.70
2024-05-09T13:53:02.021Z,6.20
2024-05-09T13:57:55.633Z,7.50
2024-05-09T14:00:31.985Z,7.10
2024-05-09T14:03:09.174Z,7.10
2024-05-09T14:05:36.128Z,7.45
2024-05-09T14:08:03.236Z,8.18
2024-05-09T14:10:31.863Z,7.68
2024-05-09T14:12:59.979Z,6.13
2024-05-09T14:15:26.754Z,7.47
2024-05-09T14:17:54.226Z,7.13
2024-05-09T14:20:30.298Z,7.60
2024-05-09T14:22:59.117Z,7.00
2024-05-09T14:25:28.278Z,7.40
2024-05-09T14:27:55.431Z,7.50
2024-05-09T14:30:30.596Z,6.05
2024-05-09T14:33:03.755Z,7.30
2024-05-09T14:35:30.578Z,6.78
2024-05-09T14:37:57.165Z,7.03
2024-05-09T14:42:53.337Z,6.78
2024-05-09T14:45:19.949Z,7.05
2024-05-09T14:47:46.795Z,7.10
2024-05-09T14:52:54.099Z,7.00
2024-05-09T14:55:20.733Z,6.90
2024-05-09T14:57:47.444Z,6.93
2024-05-09T15:00:21.306Z,6.80
2024-05-09T15:02:53.021Z,8.07
2024-05-09T15:07:46.419Z,7.47
2024-05-09T15:10:20.388Z,6.65
2024-05-09T15:12:50.619Z,7.90
2024-05-09T15:15:17.755Z,8.15
2024-05-09T15:17:44.853Z,7.93
2024-05-09T15:20:17.033Z,7.07
2024-05-09T15:22:46.852Z,7.50
2024-05-09T15:25:13.638Z,8.00
2024-05-09T15:30:10.687Z,7.95
2024-05-09T15:32:37.654Z,8.60
2024-05-09T15:35:05.489Z,8.30
2024-05-09T15:37:32.393Z,7.88
2024-05-09T15:42:25.495Z,7.45
2024-05-09T15:44:53.032Z,7.68
2024-05-09T15:47:20.273Z,8.07
2024-05-09T15:49:50.538Z,9.25
2024-05-09T15:52:17.843Z,8.88
2024-05-09T15:54:44.493Z,9.40
2024-05-09T15:57:11.915Z,10.00
2024-05-09T15:59:38.571Z,7.93
2024-05-09T16:02:06.012Z,10.23
2024-05-09T16:04:32.853Z,8.38
2024-05-09T16:06:59.584Z,8.23
2024-05-09T16:09:26.295Z,7.75
2024-05-09T16:11:52.935Z,9.52
2024-05-09T16:14:19.494Z,8.65
2024-05-09T16:16:46.599Z,8.35
2024-05-09T16:19:13.569Z,8.85
2024-05-09T16:24:06.791Z,7.07
2024-05-09T16:26:33.329Z,8.07
2024-05-09T16:28:59.910Z,8.20
2024-05-09T16:31:26.620Z,8.93
2024-05-09T16:36:19.999Z,8.90
2024-05-09T16:38:46.625Z,8.57
2024-05-09T16:41:14.927Z,8.48
2024-05-09T16:43:41.472Z,7.68
2024-05-09T16:46:09.023Z,8.38
2024-05-09T16:48:37.155Z,9.63
2024-05-09T16:51:03.873Z,7.82
2024-05-09T16:53:30.451Z,8.15
2024-05-09T16:55:57.030Z,9.07
2024-05-09T16:58:24.742Z,23.63
2024-05-09T17:00:51.638Z,9.70
2024-05-09T17:03:18.467Z,8.18
2024-05-09T17:05:47.121Z,11.02
2024-05-09T17:08:15.784Z,10.27
2024-05-09T17:10:42.689Z,11.35
2024-05-09T17:15:37.477Z,9.75
2024-05-09T17:18:05.304Z,15.88
2024-05-09T17:20:35.500Z,12.63
2024-05-09T17:23:05.906Z,10.50
2024-05-09T17:25:33.420Z,11.60
2024-05-09T17:30:38.915Z,10.75
2024-05-09T17:33:09.327Z,11.32
2024-05-09T17:35:37.120Z,11.93
2024-05-09T17:38:07.609Z,10.88
2024-05-09T17:40:36.930Z,10.90
2024-05-09T17:43:06.575Z,10.63
2024-05-09T17:45:34.674Z,10.05
2024-05-09T17:48:01.829Z,9.88
2024-05-09T17:50:35.138Z,10.48
2024-05-09T17:53:04.969Z,10.82
2024-05-09T17:55:31.905Z,10.32
2024-05-09T17:57:58.702Z,9.73
2024-05-09T18:00:36.341Z,10.38
2024-05-09T18:03:06.893Z,11.95
2024-05-09T18:05:35.837Z,11.27
2024-05-09T18:08:03.527Z,12.32
2024-05-09T18:10:36.028Z,11.95
2024-05-09T18:13:05.994Z,11.98
2024-05-09T18:15:33.203Z,11.07
2024-05-09T18:20:37.881Z,10.77
2024-05-09T18:23:10.843Z,9.32
2024-05-09T18:25:37.636Z,10.27
2024-05-09T18:28:04.671Z,9.88
2024-05-09T18:30:35.079Z,10.30
2024-05-09T18:33:04.935Z,10.10
2024-05-09T18:35:32.705Z,10.73
2024-05-09T18:37:59.322Z,10.30
2024-05-09T18:40:33.200Z,9.13
2024-05-09T18:43:03.579Z,9.93
2024-05-09T18:45:30.593Z,9.63
2024-05-09T18:47:57.442Z,8.45
2024-05-09T18:50:32.356Z,9.35
2024-05-09T18:53:05.671Z,9.43
2024-05-09T18:55:32.376Z,9.05
2024-05-09T18:57:59.062Z,8.10
2024-05-09T19:00:33.951Z,7.80
2024-05-09T19:03:05.731Z,7.50
2024-05-09T19:05:34.241Z,7.43
2024-05-09T19:08:01.745Z,7.60
2024-05-09T19:10:33.895Z,8.70
2024-05-09T19:13:04.373Z,7.95
2024-05-09T19:15:33.678Z,7.90
2024-05-09T19:18:00.610Z,7.53
2024-05-09T19:23:01.266Z,7.70
2024-05-09T19:25:27.808Z,7.90
2024-05-09T19:27:54.455Z,8.52
2024-05-09T19:30:29.864Z,8.05
2024-05-09T19:33:04.673Z,8.10
2024-05-09T19:35:31.515Z,6.93
2024-05-09T19:37:58.542Z,7.93
2024-05-09T19:42:59.978Z,7.05
2024-05-09T19:45:26.544Z,6.72
2024-05-09T19:47:53.261Z,7.50
2024-05-09T19:50:26.996Z,8.35
2024-05-09T19:53:02.795Z,8.18
2024-05-09T19:55:29.397Z,8.18
2024-05-09T19:57:56.000Z,9.70
2024-05-09T20:00:29.335Z,8.45
2024-05-09T20:03:02.103Z,7.88
2024-05-09T20:05:31.100Z,9.45
2024-05-09T20:07:58.049Z,8.85
2024-05-09T20:10:30.030Z,8.35
2024-05-09T20:12:59.740Z,8.13
2024-05-09T20:15:26.657Z,7.88
2024-05-09T20:17:54.340Z,7.10
2024-05-09T20:20:32.079Z,7.68
2024-05-09T20:23:04.023Z,7.30
2024-05-09T20:25:30.608Z,6.75
2024-05-09T20:27:57.196Z,8.00
2024-05-09T20:30:31.245Z,9.35
2024-05-09T20:33:02.891Z,18.48
2024-05-09T20:35:32.460Z,14.60
2024-05-09T20:37:59.550Z,14.55
2024-05-09T20:40:32.307Z,14.85
2024-05-09T20:43:02.572Z,15.27
2024-05-09T20:45:29.213Z,13.52
2024-05-09T20:47:56.101Z,13.50
2024-05-09T20:53:03.742Z,7.38
2024-05-09T20:57:57.711Z,7.75
2024-05-09T21:00:33.747Z,7.97
2024-05-09T21:03:06.485Z,9.13
2024-05-09T21:05:34.117Z,11.70
2024-05-09T21:08:01.395Z,8.73
2024-05-09T21:10:32.300Z,11.65
2024-05-09T21:13:00.428Z,9.65
2024-05-09T21:15:27.061Z,7.55
2024-05-09T21:17:53.640Z,7.72
2024-05-09T21:20:24.418Z,8.02
2024-05-09T21:22:57.601Z,7.85
2024-05-09T21:25:24.320Z,10.45
2024-05-09T21:27:51.182Z,11.85
2024-05-09T21:30:26.808Z,11.70
2024-05-09T21:32:59.371Z,12.23
2024-05-09T21:35:25.972Z,13.32
2024-05-09T21:37:52.559Z,12.30
2024-05-09T21:40:27.256Z,13.82
2024-05-09T21:43:00.659Z,13.55
2024-05-09T21:47:54.083Z,14.85
2024-05-09T21:50:27.595Z,16.55
2024-05-09T21:52:58.912Z,17.20
2024-05-09T21:55:25.733Z,16.17
2024-05-09T21:57:52.514Z,16.98
2024-05-09T22:00:28.757Z,19.05
2024-05-09T22:03:02.293Z,25.48
2024-05-09T22:07:56.494Z,13.35
2024-05-09T22:12:59.894Z,15.00
2024-05-09T22:15:26.490Z,12.60
2024-05-09T22:17:53.746Z,14.13
2024-05-09T22:20:28.772Z,16.45
2024-05-09T22:23:02.437Z,18.58
2024-05-09T22:25:30.668Z,13.43
2024-05-09T22:27:58.008Z,13.85
2024-05-09T22:30:33.163Z,18.42
2024-05-09T22:33:03.725Z,14.13
2024-05-09T22:35:30.501Z,14.20
2024-05-09T22:37:57.084Z,13.25
2024-05-09T22:40:32.278Z,13.48
2024-05-09T22:43:06.055Z,16.85
2024-05-09T22:45:32.915Z,18.33
2024-05-09T22:47:59.911Z,21.10
2024-05-09T22:50:30.596Z,18.88
2024-05-09T22:52:59.282Z,16.65
2024-05-09T22:55:25.838Z,12.52
2024-05-09T22:57:52.427Z,11.25
2024-05-09T23:00:26.181Z,11.07
2024-05-09T23:02:57.734Z,13.23
2024-05-09T23:05:24.379Z,13.85
2024-05-09T23:07:51.034Z,13.48
2024-05-09T23:10:25.021Z,15.88
2024-05-09T23:12:58.546Z,15.73
2024-05-09T23:15:25.260Z,13.60
2024-05-09T23:17:52.003Z,14.35
2024-05-09T23:20:29.628Z,14.23
2024-05-09T23:23:03.311Z,12.00
2024-05-09T23:25:29.890Z,11.40
2024-05-09T23:27:56.595Z,10.23
2024-05-09T23:30:33.102Z,11.07
2024-05-09T23:33:04.686Z,12.48
2024-05-09T23:35:31.349Z,10.95
2024-05-09T23:37:57.902Z,11.65
2024-05-09T23:40:34.713Z,12.00
2024-05-09T23:43:05.317Z,12.50
2024-05-09T23:45:31.932Z,11.60
2024-05-09T23:47:58.666Z,13.80
2024-05-09T23:50:33.576Z,14.48
2024-05-09T23:53:03.187Z,12.75
2024-05-09T23:55:31.127Z,13.73
2024-05-09T23:57:57.735Z,12.70
